Time;durP1;ratioP1;P1;durP2;ratioP2;P2;SDS_P1;SDS_P2;PMS_P1;PMS_P2;Temp;Humidity;BMP_temperature;BMP_pressure;BME280_temperature;BME280_humidity;BME280_pressure;Samples;Min_cycle;Max_cycle;Signal;HPM_P1;HPM_P2
2023/08/24 00:01:34;;;;;;;5.82;5.32;;;;;;;27.81;59.79;95552.41;6277003;22;20519;-83
2023/08/24 00:04:00;;;;;;;6.03;5.55;;;;;;;27.81;59.29;95544.47;6278393;22;20176;-83
2023/08/24 00:06:27;;;;;;;6.15;5.57;;;;;;;27.74;60.10;95556.47;6278613;22;20175;-83
2023/08/24 00:08:53;;;;;;;7.72;5.90;;;;;;;27.68;60.28;95562.91;6278179;22;20196;-84
2023/08/24 00:11:20;;;;;;;6.40;5.82;;;;;;;27.55;61.10;95582.88;6279181;22;20176;-84
2023/08/24 00:13:50;;;;;;;7.07;5.85;;;;;;;27.58;60.88;95584.19;6278167;22;20179;-83
2023/08/24 00:16:17;;;;;;;6.55;5.95;;;;;;;27.61;60.99;95592.34;6278763;22;20196;-83
2023/08/24 00:18:44;;;;;;;6.00;5.40;;;;;;;27.63;61.03;95592.88;6277424;22;20218;-83
2023/08/24 00:21:11;;;;;;;6.65;6.03;;;;;;;27.59;60.80;95602.44;6278980;22;20206;-83
2023/08/24 00:23:38;;;;;;;11.43;5.68;;;;;;;27.55;61.13;95603.25;6278270;22;20251;-83
2023/08/24 00:26:04;;;;;;;5.88;5.38;;;;;;;27.47;61.56;95602.03;6278514;22;20179;-83
2023/08/24 00:28:31;;;;;;;6.30;5.80;;;;;;;27.44;61.13;95603.38;6279099;22;20230;-83
2023/08/24 00:30:59;;;;;;;7.22;5.93;;;;;;;27.37;61.92;95607.41;6278993;22;20777;-83
2023/08/24 00:33:25;;;;;;;6.35;5.75;;;;;;;27.30;62.17;95607.78;6277522;22;20176;-83
2023/08/24 00:35:52;;;;;;;6.95;6.35;;;;;;;27.25;61.86;95625.53;6277795;22;20172;-82
2023/08/24 00:38:18;;;;;;;7.72;6.10;;;;;;;27.16;62.94;95652.59;6278182;22;20196;-83
2023/08/24 00:40:44;;;;;;;6.30;5.80;;;;;;;27.08;62.95;95655.06;6277047;22;20176;-83
2023/08/24 00:43:12;;;;;;;6.65;5.95;;;;;;;27.09;63.25;95652.13;6277087;22;20199;-83
2023/08/24 00:45:38;;;;;;;6.50;5.63;;;;;;;27.10;63.50;95656.38;6277693;22;20199;-83
2023/08/24 00:48:07;;;;;;;6.30;5.70;;;;;;;27.06;63.67;95663.25;6277362;22;20203;-83
2023/08/24 00:50:33;;;;;;;5.97;5.40;;;;;;;27.07;63.52;95661.41;6276940;22;20584;-83
2023/08/24 00:53:00;;;;;;;6.80;6.20;;;;;;;27.00;64.39;95680.22;6278204;22;20535;-83
2023/08/24 00:55:26;;;;;;;5.93;5.43;;;;;;;27.08;63.77;95660.34;6277510;22;20510;-83
2023/08/24 00:57:53;;;;;;;5.80;5.25;;;;;;;27.12;63.50;95656.88;6278174;22;20196;-83
2023/08/24 01:00:19;;;;;;;6.38;5.88;;;;;;;27.20;63.15;95646.75;6279126;22;20172;-83
2023/08/24 01:02:46;;;;;;;6.38;5.72;;;;;;;27.23;62.78;95636.41;6277287;22;20176;-83
2023/08/24 01:05:14;;;;;;;6.63;6.13;;;;;;;27.12;63.31;95646.31;6277952;22;20172;-83
2023/08/24 01:07:41;;;;;;;5.60;5.20;;;;;;;27.15;63.29;95643.06;6274369;22;20658;-83
2023/08/24 01:10:10;;;;;;;6.60;6.00;;;;;;;27.11;63.78;95647.38;6274493;22;20199;-83
2023/08/24 01:12:49;;;;;;;6.10;5.68;;;;;;;27.12;63.75;95646.31;6274273;22;20438;-83
2023/08/24 01:15:22;;;;;;;6.47;6.03;;;;;;;27.08;63.77;95641.84;6274188;22;20487;-83
2023/08/24 01:17:51;;;;;;;6.07;5.47;;;;;;;27.08;63.42;95650.56;6274499;22;20192;-82
2023/08/24 01:20:20;;;;;;;6.38;5.63;;;;;;;27.07;63.49;95642.91;6274667;22;20168;-83
2023/08/24 01:22:54;;;;;;;5.90;5.50;;;;;;;27.11;63.41;95643.94;6273175;22;20172;-83
2023/08/24 01:25:29;;;;;;;6.35;5.95;;;;;;;27.08;63.27;95642.63;6274283;22;20190;-83
2023/08/24 01:27:59;;;;;;;6.40;5.80;;;;;;;27.07;63.27;95627.06;6274480;22;20508;-82
2023/08/24 01:30:26;;;;;;;5.80;5.40;;;;;;;27.07;63.10;95625.19;6274773;22;20231;-82
2023/08/24 01:32:53;;;;;;;6.38;5.88;;;;;;;27.00;63.50;95640.59;6274351;22;20176;-83
2023/08/24 01:35:19;;;;;;;6.32;5.30;;;;;;;26.99;63.46;95633.72;6274100;22;20270;-83
2023/08/24 01:37:46;;;;;;;6.50;5.90;;;;;;;26.89;63.67;95654.94;6273827;22;20788;-83
2023/08/24 01:40:17;;;;;;;6.82;5.95;;;;;;;26.84;63.66;95653.13;6274343;22;20172;-83
2023/08/24 01:42:49;;;;;;;6.75;6.15;;;;;;;26.88;63.97;95652.56;6273925;22;20160;-83
2023/08/24 01:45:19;;;;;;;6.15;5.60;;;;;;;26.74;64.62;95666.44;6274275;22;20156;-83
2023/08/24 01:47:48;;;;;;;6.28;5.80;;;;;;;26.74;64.42;95679.63;6273630;22;20203;-83
2023/08/24 01:50:14;;;;;;;6.55;6.05;;;;;;;26.72;64.27;95663.28;6274029;22;20199;-83
2023/08/24 01:52:43;;;;;;;7.22;6.57;;;;;;;26.57;64.63;95668.63;6274521;22;20176;-83
2023/08/24 01:55:10;;;;;;;6.82;5.80;;;;;;;26.53;65.03;95677.41;6273912;22;20686;-82
2023/08/24 01:57:36;;;;;;;6.80;6.00;;;;;;;26.46;65.51;95686.41;6273325;22;20230;-83
2023/08/24 02:00:06;;;;;;;7.53;6.30;;;;;;;26.49;65.80;95680.59;6275493;22;20178;-83
2023/08/24 02:02:36;;;;;;;6.30;5.80;;;;;;;26.48;65.72;95679.00;6273869;22;20176;-83
2023/08/24 02:05:02;;;;;;;6.78;6.10;;;;;;;26.49;65.62;95677.16;6273775;22;20153;-83
2023/08/24 02:07:29;;;;;;;7.85;6.22;;;;;;;26.51;66.10;95682.19;6277300;22;20196;-83
2023/08/24 02:09:55;;;;;;;6.53;6.03;;;;;;;26.50;65.99;95684.03;6276687;22;20255;-83
2023/08/24 02:12:22;;;;;;;6.38;5.75;;;;;;;26.53;65.84;95677.41;6277599;22;20176;-83
2023/08/24 02:14:49;;;;;;;7.32;6.13;;;;;;;26.62;65.19;95663.34;6277508;22;20172;-83
2023/08/24 02:17:15;;;;;;;6.57;5.95;;;;;;;26.62;65.59;95665.19;6278412;22;20209;-82
2023/08/24 02:19:43;;;;;;;7.38;5.90;;;;;;;26.68;64.74;95650.88;6276827;22;20172;-83
2023/08/24 02:22:09;;;;;;;6.35;5.85;;;;;;;26.67;64.62;95644.81;6276968;22;20176;-83
2023/08/24 02:24:36;;;;;;;6.60;6.10;;;;;;;26.69;64.52;95639.25;6277270;22;20255;-82
2023/08/24 02:27:02;;;;;;;6.13;5.63;;;;;;;26.69;64.56;95642.69;6276315;22;20187;-83
2023/08/24 02:29:29;;;;;;;8.00;6.22;;;;;;;26.51;65.33;95656.56;6276571;22;20192;-82
2023/08/24 02:31:56;;;;;;;5.90;5.50;;;;;;;26.48;65.43;95657.09;6277378;22;20196;-83
2023/08/24 02:34:22;;;;;;;6.88;6.15;;;;;;;26.39;66.13;95667.44;6276159;22;20176;-83
2023/08/24 02:36:50;;;;;;;6.30;5.47;;;;;;;26.42;66.01;95668.75;6276414;22;20173;-82
2023/08/24 02:39:16;;;;;;;6.03;5.53;;;;;;;26.43;66.27;95673.75;6277487;22;20188;-83
2023/08/24 02:41:43;;;;;;;6.03;5.45;;;;;;;26.36;66.44;95680.44;6276159;22;20172;-82
2023/08/24 02:44:09;;;;;;;7.07;5.55;;;;;;;26.40;66.12;95666.38;6276059;22;20191;-83
2023/08/24 02:46:36;;;;;;;5.82;5.43;;;;;;;26.51;65.20;95661.03;6277905;22;20299;-83
2023/08/24 02:49:02;;;;;;;7.13;5.97;;;;;;;26.42;66.18;95661.63;6277336;22;20196;-83
2023/08/24 02:51:31;;;;;;;7.13;5.82;;;;;;;26.42;65.90;95661.63;6277372;22;20177;-82
2023/08/24 02:53:58;;;;;;;6.57;5.78;;;;;;;26.39;65.77;95654.25;6276935;22;20181;-83
2023/08/24 02:56:25;;;;;;;6.10;5.50;;;;;;;26.29;66.09;95664.06;6275871;22;20183;-83
2023/08/24 02:58:52;;;;;;;6.18;5.57;;;;;;;26.21;66.55;95669.91;6275564;22;20258;-83
2023/08/24 03:01:19;;;;;;;6.35;5.75;;;;;;;26.12;66.92;95672.34;6278048;22;20176;-83
2023/08/24 03:03:45;;;;;;;6.28;5.78;;;;;;;26.08;67.18;95684.50;6277007;22;20173;-82
2023/08/24 03:06:11;;;;;;;7.20;5.82;;;;;;;25.98;68.04;95706.44;6275973;22;20176;-84
2023/08/24 03:08:38;;;;;;;6.38;5.88;;;;;;;26.02;67.62;95689.00;6275732;22;20196;-83
2023/08/24 03:11:06;;;;;;;6.63;6.03;;;;;;;26.06;67.40;95683.97;6278710;22;20196;-83
2023/08/24 03:13:32;;;;;;;6.95;5.65;;;;;;;26.06;67.40;95684.75;6278938;22;20237;-83
2023/08/24 03:16:04;;;;;;;7.25;5.80;;;;;;;26.09;67.55;95680.81;6273107;22;20173;-83
2023/08/24 03:18:30;;;;;;;6.40;5.85;;;;;;;26.04;67.69;95675.53;6273567;22;20223;-83
2023/08/24 03:20:57;;;;;;;6.68;5.55;;;;;;;26.07;67.45;95664.44;6274047;22;20173;-83
2023/08/24 03:23:23;;;;;;;6.40;5.90;;;;;;;26.11;67.30;95662.84;6274454;22;20539;-83
2023/08/24 03:25:50;;;;;;;6.93;6.07;;;;;;;26.06;67.19;95658.38;6273861;22;20180;-84
2023/08/24 03:28:18;;;;;;;6.47;5.88;;;;;;;26.06;67.30;95666.28;6274512;22;20192;-81
2023/08/24 03:30:48;;;;;;;6.75;6.18;;;;;;;26.02;67.61;95665.25;6273498;22;20528;-83
2023/08/24 03:33:14;;;;;;;7.35;5.70;;;;;;;26.04;66.92;95664.97;6273450;22;20172;-83
2023/08/24 03:35:41;;;;;;;6.68;5.80;;;;;;;26.03;66.95;95658.91;6273626;22;20176;-83
2023/08/24 03:38:07;;;;;;;6.35;5.80;;;;;;;26.05;66.89;95659.44;6273237;22;20203;-83
2023/08/24 03:40:34;;;;;;;6.60;6.00;;;;;;;26.03;66.84;95661.56;6273175;22;20176;-83
2023/08/24 03:43:02;;;;;;;7.00;6.30;;;;;;;25.95;67.66;95662.13;6275950;22;20180;-83
2023/08/24 03:45:30;;;;;;;6.93;6.32;;;;;;;25.83;67.71;95671.41;6273634;22;20584;-83
2023/08/24 03:47:56;;;;;;;7.63;6.05;;;;;;;25.92;67.61;95669.81;6272237;22;20200;-83
2023/08/24 03:50:23;;;;;;;6.82;6.13;;;;;;;25.85;67.75;95675.34;6273395;22;20196;-83
2023/08/24 03:52:50;;;;;;;7.15;5.97;;;;;;;25.72;68.81;95689.13;6272450;22;20207;-84
2023/08/24 03:55:17;;;;;;;7.65;5.90;;;;;;;25.59;69.57;95708.94;6272738;22;20184;-84
2023/08/24 03:57:43;;;;;;;6.80;6.20;;;;;;;25.59;69.35;95706.31;6273443;22;20200;-83
2023/08/24 04:00:11;;;;;;;6.35;5.85;;;;;;;25.73;68.68;95693.34;6275059;22;20168;-83
2023/08/24 04:02:39;;;;;;;6.78;5.60;;;;;;;25.75;67.83;95676.22;6274877;22;20176;-84
2023/08/24 04:05:06;;;;;;;6.32;5.82;;;;;;;25.81;67.70;95682.22;6273101;22;20179;-83
2023/08/24 04:07:33;;;;;;;6.30;5.72;;;;;;;25.90;67.10;95666.66;6273053;22;20204;-83
2023/08/24 04:09:59;;;;;;;6.22;5.70;;;;;;;25.93;69.93;95742.63;6272559;22;20295;-81
2023/08/24 04:12:25;;;;;;;6.32;5.68;;;;;;;26.13;69.26;95726.72;6272349;22;20176;-82
2023/08/24 04:14:52;;;;;;;5.78;5.38;;;;;;;26.26;68.16;95691.78;6275784;22;20176;-81
2023/08/24 04:17:18;;;;;;;7.05;5.70;;;;;;;26.29;67.83;95685.19;6276047;22;20172;-81
2023/08/24 04:19:46;;;;;;;6.28;5.78;;;;;;;26.42;67.08;95656.34;6276075;22;20679;-85
2023/08/24 04:22:13;;;;;;;7.70;6.22;;;;;;;26.45;66.96;95647.09;6276423;22;20180;-85
2023/08/24 04:24:39;;;;;;;5.97;5.47;;;;;;;26.47;66.41;95642.31;6275497;22;20545;-85
2023/08/24 04:27:06;;;;;;;6.28;5.75;;;;;;;26.49;65.59;95625.13;6276729;22;20176;-85
2023/08/24 04:29:32;;;;;;;6.35;5.75;;;;;;;26.57;65.25;95626.38;6276742;22;20212;-85
2023/08/24 04:31:59;;;;;;;6.07;5.53;;;;;;;26.63;66.55;95654.34;6277369;22;20176;-86
2023/08/24 04:34:26;;;;;;;6.47;5.88;;;;;;;26.70;64.71;95603.84;6277097;22;20239;-84
2023/08/24 04:36:57;;;;;;;6.95;5.65;;;;;;;26.55;63.88;95588.13;6276175;22;20237;-86
2023/08/24 04:39:24;;;;;;;6.95;6.32;;;;;;;26.49;65.33;95622.50;6276814;22;20203;-85
2023/08/24 04:41:50;;;;;;;6.70;6.07;;;;;;;26.56;65.26;95643.28;6276750;22;20180;-84
2023/08/24 04:44:17;;;;;;;9.05;6.28;;;;;;;26.62;64.72;95618.44;6275971;22;20184;-84
2023/08/24 04:46:43;;;;;;;8.07;6.22;;;;;;;26.65;64.78;95625.81;6275895;22;20181;-84
2023/08/24 04:49:10;;;;;;;6.15;5.53;;;;;;;26.74;65.23;95639.22;6276809;22;20199;-85
2023/08/24 04:51:36;;;;;;;5.80;5.40;;;;;;;26.72;64.28;95596.44;6274314;22;20204;-85
2023/08/24 04:54:04;;;;;;;6.25;5.70;;;;;;;26.71;64.21;95585.06;6275095;22;20179;-84
2023/08/24 04:56:30;;;;;;;6.75;5.70;;;;;;;26.74;64.78;95620.72;6274302;22;20183;-84
2023/08/24 04:58:57;;;;;;;6.85;6.05;;;;;;;26.80;64.30;95596.59;6273958;22;20286;-86
2023/08/24 05:01:25;;;;;;;6.28;5.78;;;;;;;26.82;63.81;95570.69;6273206;22;20175;-84
2023/08/24 05:03:51;;;;;;;6.38;5.82;;;;;;;26.81;63.81;95592.09;6274596;22;20180;-85
2023/08/24 05:06:18;;;;;;;6.28;5.72;;;;;;;26.72;64.26;95585.88;6274952;22;20486;-84
2023/08/24 05:08:44;;;;;;;6.68;6.03;;;;;;;26.56;64.35;95592.31;6274472;22;20196;-84
2023/08/24 05:11:18;;;;;;;7.45;6.60;;;;;;;26.53;64.56;95608.75;6275765;22;20200;-86
2023/08/24 05:13:44;;;;;;;6.70;6.20;;;;;;;26.58;64.87;95609.47;6274156;22;20160;-84
2023/08/24 05:16:11;;;;;;;6.68;5.82;;;;;;;26.62;64.86;95607.06;6272176;22;20176;-85
2023/08/24 05:18:38;;;;;;;9.00;6.65;;;;;;;26.67;63.85;95589.34;6272382;22;20199;-84
2023/08/24 05:21:05;;;;;;;8.05;6.20;;;;;;;26.71;64.50;95598.28;6272012;22;20639;-85
2023/08/24 05:23:32;;;;;;;7.93;6.65;;;;;;;26.68;64.47;95592.75;6271927;22;20180;-86
2023/08/24 05:25:58;;;;;;;6.97;5.97;;;;;;;26.73;63.91;95593.50;6271911;22;20184;-84
2023/08/24 05:28:27;;;;;;;8.65;6.50;;;;;;;26.79;63.04;95570.47;6272694;22;20215;-85
2023/08/24 05:30:53;;;;;;;10.30;9.40;;;;;;;26.84;63.33;95573.84;6271846;22;20203;-84
2023/08/24 05:33:20;;;;;;;11.93;10.82;;;;;;;26.81;63.80;95571.75;6272782;22;20176;-86
2023/08/24 05:35:47;;;;;;;8.52;7.25;;;;;;;26.97;64.05;95579.56;6272247;22;20180;-84
2023/08/24 05:38:14;;;;;;;9.52;8.73;;;;;;;27.05;62.37;95531.38;6272252;22;20203;-85
2023/08/24 05:40:42;;;;;;;12.65;11.35;;;;;;;26.93;62.74;95520.41;6271557;22;20635;-84
2023/08/24 05:43:09;;;;;;;8.60;7.80;;;;;;;26.79;62.85;95549.31;6272214;22;20709;-84
2023/08/24 05:45:39;;;;;;;8.25;7.28;;;;;;;26.68;63.61;95574.28;6271668;22;20222;-85
2023/08/24 05:48:06;;;;;;;9.80;8.80;;;;;;;26.77;64.21;95599.00;6272061;22;20279;-86
2023/08/24 05:50:33;;;;;;;14.63;8.27;;;;;;;26.74;64.52;95602.22;6271851;22;20192;-84
2023/08/24 05:52:59;;;;;;;9.45;7.57;;;;;;;26.83;64.73;95609.25;6271872;22;20183;-83
2023/08/24 05:55:26;;;;;;;11.15;9.23;;;;;;;26.80;64.72;95612.47;6271596;22;20183;-85
2023/08/24 05:57:53;;;;;;;9.23;8.35;;;;;;;26.93;65.03;95621.59;6271413;22;20461;-84
2023/08/24 06:00:22;;;;;;;10.50;9.40;;;;;;;26.98;65.13;95613.63;6271774;22;20651;-84
2023/08/24 06:02:50;;;;;;;9.05;8.23;;;;;;;27.00;64.74;95616.00;6270917;22;20183;-84
2023/08/24 06:05:17;;;;;;;9.73;8.80;;;;;;;27.04;65.03;95622.31;6271649;22;20179;-86
2023/08/24 06:07:45;;;;;;;9.38;8.52;;;;;;;27.16;65.31;95618.22;6271230;22;20191;-83
2023/08/24 06:10:12;;;;;;;8.15;7.40;;;;;;;27.17;65.25;95619.78;6273220;22;20198;-80
2023/08/24 06:12:39;;;;;;;7.43;6.82;;;;;;;27.29;64.95;95631.84;6272116;22;20180;-84
2023/08/24 06:15:09;;;;;;;12.15;8.60;;;;;;;27.32;65.39;95633.94;6272416;22;20180;-84
2023/08/24 06:17:36;;;;;;;12.18;8.93;;;;;;;27.22;66.04;95648.03;6274498;22;20196;-84
2023/08/24 06:20:04;;;;;;;13.48;9.98;;;;;;;27.00;67.47;95682.88;6274311;22;20180;-84
2023/08/24 06:22:31;;;;;;;9.88;8.57;;;;;;;26.99;68.06;95691.88;6274713;22;20196;-86
2023/08/24 06:24:59;;;;;;;11.13;9.68;;;;;;;26.90;68.53;95708.56;6272811;22;20195;-83
2023/08/24 06:27:26;;;;;;;10.82;9.85;;;;;;;26.83;68.98;95712.31;6272003;22;20172;-83
2023/08/24 06:29:52;;;;;;;9.85;9.05;;;;;;;26.79;69.71;95729.78;6270980;22;20179;-84
2023/08/24 06:32:18;;;;;;;10.60;9.05;;;;;;;26.78;69.96;95730.06;6271405;22;20172;-84
2023/08/24 06:34:45;;;;;;;10.10;8.98;;;;;;;26.61;69.95;95727.00;6271695;22;20173;-83
2023/08/24 06:37:13;;;;;;;9.98;8.98;;;;;;;26.69;69.91;95724.56;6271191;22;20199;-84
2023/08/24 06:39:39;;;;;;;9.43;8.43;;;;;;;26.77;69.47;95718.69;6271806;22;20175;-84
2023/08/24 06:42:06;;;;;;;11.70;8.68;;;;;;;26.70;68.73;95681.25;6271907;22;20179;-84
2023/08/24 06:44:32;;;;;;;9.32;8.32;;;;;;;26.79;68.71;95684.06;6271626;22;20184;-85
2023/08/24 06:46:59;;;;;;;8.57;7.80;;;;;;;26.78;68.22;95678.00;6272245;22;20180;-83
2023/08/24 06:49:25;;;;;;;10.35;8.05;;;;;;;26.75;68.16;95683.03;6276445;22;20200;-83
2023/08/24 06:51:52;;;;;;;9.85;8.00;;;;;;;26.68;67.82;95659.59;6274730;22;20319;-82
2023/08/24 06:54:19;;;;;;;8.60;7.85;;;;;;;26.74;67.17;95645.28;6274131;22;20180;-83
2023/08/24 06:56:46;;;;;;;9.73;7.20;;;;;;;26.89;66.11;95625.88;6276787;22;20180;-83
2023/08/24 06:59:13;;;;;;;8.48;7.55;;;;;;;26.96;65.19;95594.63;6273291;22;20192;-84
2023/08/24 07:01:40;;;;;;;7.95;7.15;;;;;;;27.16;64.42;95578.56;6272228;22;20254;-84
2023/08/24 07:04:07;;;;;;;7.93;6.63;;;;;;;27.31;63.42;95537.16;6273904;22;20179;-84
2023/08/24 07:06:34;;;;;;;8.10;7.30;;;;;;;27.48;63.13;95518.97;6273882;22;20176;-83
2023/08/24 07:09:00;;;;;;;9.57;7.72;;;;;;;27.43;61.17;95456.34;6274335;22;20561;-84
2023/08/24 07:11:28;;;;;;;9.45;8.55;;;;;;;27.46;60.98;95429.31;6273737;22;20192;-84
2023/08/24 07:13:54;;;;;;;7.32;6.43;;;;;;;27.38;60.92;95416.72;6273887;22;20519;-84
2023/08/24 07:16:21;;;;;;;8.80;6.95;;;;;;;27.39;60.88;95451.91;6273650;22;20190;-84
2023/08/24 07:18:47;;;;;;;7.78;7.05;;;;;;;27.52;61.64;95456.47;6273888;22;20215;-84
2023/08/24 07:21:14;;;;;;;10.43;6.70;;;;;;;27.65;61.68;95453.16;6274574;22;20180;-83
2023/08/24 07:23:40;;;;;;;7.40;6.70;;;;;;;27.84;61.25;95453.91;6274389;22;20182;-84
2023/08/24 07:26:08;;;;;;;7.95;7.00;;;;;;;27.98;60.74;95442.56;6274205;22;20514;-84
2023/08/24 07:28:36;;;;;;;8.05;7.10;;;;;;;28.04;60.79;95458.09;6273648;22;20199;-83
2023/08/24 07:31:08;;;;;;;10.77;6.90;;;;;;;28.19;61.05;95449.94;6274818;22;20562;-84
2023/08/24 07:33:34;;;;;;;7.47;6.78;;;;;;;28.31;60.81;95441.50;6273522;22;20171;-84
2023/08/24 07:36:04;;;;;;;8.43;6.90;;;;;;;28.40;60.61;95418.56;6274492;22;20172;-83
2023/08/24 07:38:30;;;;;;;9.27;6.70;;;;;;;28.37;60.87;95423.66;6274601;22;20199;-83
2023/08/24 07:40:57;;;;;;;8.20;6.63;;;;;;;28.59;60.00;95410.53;6274429;22;20256;-83
2023/08/24 07:43:23;;;;;;;7.65;6.82;;;;;;;28.68;59.55;95390.19;6273224;22;20184;-83
2023/08/24 07:45:51;;;;;;;7.57;6.88;;;;;;;28.74;59.68;95388.25;6274333;22;20176;-84
2023/08/24 07:48:18;;;;;;;8.38;7.22;;;;;;;28.96;59.18;95374.31;6274063;22;20243;-84
2023/08/24 07:50:44;;;;;;;7.43;6.72;;;;;;;29.05;58.62;95362.72;6274127;22;20682;-84
2023/08/24 07:53:11;;;;;;;9.25;7.13;;;;;;;29.05;59.01;95367.22;6274906;22;20176;-83
2023/08/24 07:55:37;;;;;;;8.10;7.40;;;;;;;29.27;58.11;95345.25;6274491;22;20179;-83
2023/08/24 07:58:04;;;;;;;7.88;7.00;;;;;;;29.33;57.34;95326.25;6273910;22;20558;-83
2023/08/24 08:00:30;;;;;;;9.50;6.93;;;;;;;29.48;57.35;95333.09;6274103;22;20176;-84
2023/08/24 08:02:58;;;;;;;8.07;7.38;;;;;;;29.53;57.26;95320.50;6273331;22;20179;-84
2023/08/24 08:05:24;;;;;;;9.45;6.50;;;;;;;29.70;57.57;95327.78;6273743;22;20547;-83
2023/08/24 08:07:51;;;;;;;9.15;6.88;;;;;;;29.99;57.03;95305.31;6274298;22;20192;-85
2023/08/24 08:10:20;;;;;;;7.85;6.97;;;;;;;30.22;55.83;95275.69;6274566;22;20191;-84
2023/08/24 08:12:46;;;;;;;7.45;6.47;;;;;;;30.39;54.83;95242.31;6274997;22;20275;-84
2023/08/24 08:15:12;;;;;;;8.02;6.78;;;;;;;30.45;55.34;95235.75;6274109;22;20176;-84
2023/08/24 08:17:39;;;;;;;10.85;9.77;;;;;;;30.66;54.85;95214.69;6274387;22;20192;-84
2023/08/24 08:20:08;;;;;;;8.65;7.10;;;;;;;30.73;54.20;95175.13;6275203;22;20199;-84
2023/08/24 08:22:38;;;;;;;9.15;6.85;;;;;;;30.72;53.43;95166.38;6280187;22;20263;-85
2023/08/24 08:25:05;;;;;;;8.77;7.40;;;;;;;30.77;53.36;95160.91;6273602;22;20206;-84
2023/08/24 08:27:32;;;;;;;8.82;7.07;;;;;;;30.84;53.46;95166.50;6273561;22;20675;-84
2023/08/24 08:29:59;;;;;;;7.97;7.28;;;;;;;30.89;53.90;95173.56;6273933;22;20203;-84
2023/08/24 08:32:27;;;;;;;7.72;6.97;;;;;;;31.01;53.10;95157.72;6273886;22;20219;-84
2023/08/24 08:34:53;;;;;;;12.55;8.05;;;;;;;31.05;52.88;95145.38;6272671;22;20608;-85
2023/08/24 08:37:21;;;;;;;9.05;7.07;;;;;;;31.20;52.79;95144.88;6275808;22;20172;-85
2023/08/24 08:39:48;;;;;;;7.05;6.55;;;;;;;31.48;52.22;95123.19;6273744;22;20176;-85
2023/08/24 08:42:15;;;;;;;10.65;7.10;;;;;;;31.72;52.19;95106.66;6273926;22;20172;-85
2023/08/24 08:44:42;;;;;;;6.93;6.22;;;;;;;31.88;51.89;95092.44;6272584;22;20530;-83
2023/08/24 08:47:10;;;;;;;6.88;6.20;;;;;;;32.00;50.76;95043.00;6274719;22;20176;-85
2023/08/24 08:49:39;;;;;;;7.88;7.07;;;;;;;32.15;50.40;95031.75;6272895;22;20173;-85
2023/08/24 08:52:06;;;;;;;9.77;6.55;;;;;;;32.42;50.44;95023.22;6273524;22;20199;-85
2023/08/24 08:54:34;;;;;;;10.93;6.15;;;;;;;32.40;50.09;95017.44;6273813;22;20564;-85
2023/08/24 08:57:01;;;;;;;8.82;6.38;;;;;;;32.57;49.71;95003.94;6273703;22;20176;-85
2023/08/24 08:59:30;;;;;;;7.60;7.00;;;;;;;32.60;49.09;94989.97;6273676;22;20682;-86
2023/08/24 09:01:57;;;;;;;7.07;6.38;;;;;;;32.78;49.14;94971.13;6272797;22;20180;-85
2023/08/24 09:04:24;;;;;;;8.13;6.47;;;;;;;32.78;49.35;94973.78;6272663;22;20176;-85
2023/08/24 09:06:51;;;;;;;7.55;6.82;;;;;;;32.93;48.29;94941.88;6273561;22;20156;-85
2023/08/24 09:09:17;;;;;;;7.85;6.65;;;;;;;32.69;48.55;94957.09;6272210;22;20203;-85
2023/08/24 09:11:47;;;;;;;11.65;10.55;;;;;;;32.55;49.15;94966.16;6272582;22;20678;-85
2023/08/24 09:14:14;;;;;;;11.02;10.15;;;;;;;32.94;49.11;94953.34;6273729;22;20194;-86
2023/08/24 09:16:44;;;;;;;7.90;7.13;;;;;;;32.82;48.17;94924.00;6272653;22;20176;-85
2023/08/24 09:19:12;;;;;;;6.68;5.93;;;;;;;32.89;48.87;94924.25;6272947;22;20196;-85
2023/08/24 09:21:41;;;;;;;7.03;6.43;;;;;;;33.06;47.87;94884.00;6279143;22;20429;-85
2023/08/24 09:24:08;;;;;;;7.55;5.90;;;;;;;33.24;46.90;94829.25;6277516;22;20168;-86
2023/08/24 09:26:36;;;;;;;6.47;5.97;;;;;;;33.25;46.85;94812.16;6275052;22;20724;-85
2023/08/24 09:29:13;;;;;;;8.30;6.20;;;;;;;33.34;47.12;94808.53;6287705;22;20204;-86
2023/08/24 09:31:40;;;;;;;7.78;6.75;;;;;;;33.28;46.26;94771.44;6285314;22;20190;-84
2023/08/24 09:34:07;;;;;;;8.10;5.80;;;;;;;33.26;45.75;94746.97;6291688;22;20924;-84
2023/08/24 09:36:34;;;;;;;6.30;5.70;;;;;;;33.24;45.87;94737.72;6289884;22;20235;-84
2023/08/24 09:39:04;;;;;;;7.28;5.88;;;;;;;33.33;46.12;94750.94;6286178;22;20742;-83
2023/08/24 09:41:38;;;;;;;8.32;6.90;;;;;;;32.87;46.95;94801.13;6281064;22;20236;-84
2023/08/24 09:44:05;;;;;;;12.13;11.07;;;;;;;32.67;47.74;94844.66;6275835;22;20190;-84
2023/08/24 09:46:32;;;;;;;9.25;6.32;;;;;;;32.58;48.28;94858.88;6275274;22;20768;-84
2023/08/24 09:49:01;;;;;;;7.03;6.10;;;;;;;32.58;48.51;94871.44;6276075;22;20199;-85
2023/08/24 09:51:28;;;;;;;6.90;6.22;;;;;;;32.64;48.32;94853.31;6280299;22;20826;-85
2023/08/24 09:53:58;;;;;;;6.75;6.00;;;;;;;32.85;47.62;94824.66;6274647;22;20179;-84
2023/08/24 09:56:26;;;;;;;6.93;5.90;;;;;;;32.99;47.62;94810.97;6273517;22;20160;-84
2023/08/24 09:58:55;;;;;;;6.35;5.75;;;;;;;33.07;46.72;94773.50;6279124;22;20229;-84
2023/08/24 10:01:23;;;;;;;6.28;5.78;;;;;;;33.34;46.01;94729.25;6276848;22;20194;-84
2023/08/24 10:03:52;;;;;;;7.97;6.00;;;;;;;33.45;45.88;94711.63;6278116;22;20175;-84
2023/08/24 10:06:21;;;;;;;7.53;6.07;;;;;;;33.45;45.62;94697.50;6274817;22;20247;-84
2023/08/24 10:08:52;;;;;;;7.50;6.00;;;;;;;33.53;46.03;94723.25;6274463;22;20219;-84
2023/08/24 10:11:24;;;;;;;6.47;5.70;;;;;;;33.64;45.41;94694.94;6274071;22;20157;-85
2023/08/24 10:13:55;;;;;;;7.32;5.80;;;;;;;33.78;45.13;94678.50;6274904;22;20156;-86
2023/08/24 10:16:23;;;;;;;6.28;5.68;;;;;;;34.01;44.40;94650.03;6274574;22;20168;-84
2023/08/24 10:18:52;;;;;;;6.07;5.57;;;;;;;34.08;43.72;94604.75;6273891;22;20192;-84
2023/08/24 10:21:19;;;;;;;5.80;5.20;;;;;;;34.19;42.76;94562.22;6278618;22;20176;-84
2023/08/24 10:23:47;;;;;;;6.03;5.40;;;;;;;34.20;42.66;94515.69;6277277;22;20636;-86
2023/08/24 10:26:14;;;;;;;6.20;4.40;;;;;;;34.20;41.04;94435.50;6275609;22;20175;-84
2023/08/24 10:28:42;;;;;;;7.40;4.90;;;;;;;34.25;41.96;94464.63;6276568;22;20196;-84
2023/08/24 10:31:08;;;;;;;7.20;5.55;;;;;;;34.15;43.01;94546.13;6275268;22;20258;-84
2023/08/24 10:33:36;;;;;;;6.00;5.47;;;;;;;34.45;42.99;94573.06;6276740;22;20183;-85
2023/08/24 10:36:07;;;;;;;7.43;5.28;;;;;;;34.70;42.03;94536.09;6276893;22;20172;-84
2023/08/24 10:38:40;;;;;;;6.22;4.75;;;;;;;34.57;39.66;94342.22;6274976;22;20689;-83
2023/08/24 10:41:07;;;;;;;6.32;4.93;;;;;;;34.51;38.59;94290.16;6275430;22;20195;-84
2023/08/24 10:43:36;;;;;;;8.50;5.57;;;;;;;34.36;39.41;94318.59;6273642;22;20184;-83
2023/08/24 10:46:03;;;;;;;5.68;4.50;;;;;;;34.50;40.02;94340.19;6273856;22;20176;-84
2023/08/24 10:48:31;;;;;;;5.45;4.82;;;;;;;34.57;38.77;94286.06;6273635;22;20222;-84
2023/08/24 10:51:23;;;;;;;5.93;4.55;;;;;;;34.56;38.56;94268.47;6276456;22;20714;-84
2023/08/24 10:53:53;;;;;;;5.05;4.55;;;;;;;34.50;38.76;94261.88;6279470;22;20368;-83
2023/08/24 10:56:20;;;;;;;6.72;5.00;;;;;;;34.46;39.65;94320.66;6278440;22;20156;-84
2023/08/24 10:58:47;;;;;;;9.13;5.07;;;;;;;34.49;39.59;94319.94;6276152;22;20197;-84
2023/08/24 11:01:18;;;;;;;19.02;17.10;;;;;;;34.55;39.25;94307.81;6274272;22;20176;-83
2023/08/24 11:03:50;;;;;;;5.95;4.95;;;;;;;34.46;39.02;94288.56;6275628;22;20176;-83
2023/08/24 11:06:22;;;;;;;5.43;4.95;;;;;;;34.39;39.53;94303.75;6274671;22;20488;-84
2023/08/24 11:08:50;;;;;;;6.20;4.95;;;;;;;34.54;39.67;94324.22;6275762;22;20204;-84
2023/08/24 11:11:20;;;;;;;6.72;4.72;;;;;;;34.50;39.03;94256.53;6276159;22;20195;-84
2023/08/24 11:14:19;;;;;;;7.85;4.78;;;;;;;34.51;38.67;94239.38;6276952;22;20181;-84
2023/08/24 11:16:47;;;;;;;7.07;4.80;;;;;;;34.51;38.15;94224.09;6274761;22;20881;-85
2023/08/24 11:19:14;;;;;;;7.85;5.72;;;;;;;34.57;38.97;94259.31;6274700;22;20196;-85
2023/08/24 11:21:44;;;;;;;7.18;5.00;;;;;;;34.61;38.06;94217.38;6275632;22;20172;-85
2023/08/24 11:24:13;;;;;;;7.38;5.05;;;;;;;34.63;38.05;94201.75;6275588;22;20173;-85
2023/08/24 11:26:41;;;;;;;8.98;7.75;;;;;;;34.78;38.35;94221.44;6276350;22;20176;-85
2023/08/24 11:29:08;;;;;;;10.63;5.20;;;;;;;34.76;37.19;94148.78;6276082;22;20203;-84
2023/08/24 11:31:35;;;;;;;9.85;4.57;;;;;;;34.70;35.94;94059.31;6277492;22;20172;-84
2023/08/24 11:34:02;;;;;;;8.98;4.47;;;;;;;34.76;36.07;94047.91;6278569;22;20510;-85